sensor_id;sensor_type;location;lat;lon;timestamp;P1;durP1;ratioP1;P2;durP2;ratioP2
48285;SDS011;34102;47.716;10.296;2022-08-06T07:04:10;11.13;;;6.47;;
48285;SDS011;34102;47.716;10.296;2022-08-06T07:06:38;8.90;;;6.53;;
48285;SDS011;34102;47.716;10.296;2022-08-06T07:09:03;7.35;;;5.80;;
48285;SDS011;34102;47.716;10.296;2022-08-06T07:11:30;10.18;;;5.90;;
48285;SDS011;34102;47.716;10.296;2022-08-06T07:13:57;8.27;;;5.78;;
48285;SDS011;34102;47.716;10.296;2022-08-06T07:16:24;8.35;;;5.30;;
48285;SDS011;34102;47.716;10.296;2022-08-06T07:18:51;6.95;;;5.28;;
48285;SDS011;34102;47.716;10.296;2022-08-06T07:21:21;8.43;;;5.63;;
48285;SDS011;34102;47.716;10.296;2022-08-06T07:23:50;7.38;;;5.85;;
48285;SDS011;34102;47.716;10.296;2022-08-06T07:26:17;7.95;;;5.60;;
48285;SDS011;34102;47.716;10.296;2022-08-06T07:28:43;6.80;;;5.03;;
48285;SDS011;34102;47.716;10.296;2022-08-06T07:31:08;5.57;;;4.75;;
48285;SDS011;34102;47.716;10.296;2022-08-06T07:33:38;9.48;;;5.20;;
48285;SDS011;34102;47.716;10.296;2022-08-06T07:36:04;7.38;;;5.15;;
48285;SDS011;34102;47.716;10.296;2022-08-06T07:38:31;5.82;;;4.43;;
48285;SDS011;34102;47.716;10.296;2022-08-06T07:40:59;5.38;;;4.82;;
48285;SDS011;34102;47.716;10.296;2022-08-06T07:43:31;6.63;;;4.38;;
48285;SDS011;34102;47.716;10.296;2022-08-06T07:45:58;5.93;;;4.43;;
48285;SDS011;34102;47.716;10.296;2022-08-06T07:48:40;5.07;;;4.57;;
48285;SDS011;34102;47.716;10.296;2022-08-06T07:51:07;6.25;;;5.18;;
48285;SDS011;34102;47.716;10.296;2022-08-06T07:53:36;7.30;;;4.50;;
48285;SDS011;34102;47.716;10.296;2022-08-06T07:56:06;7.43;;;4.47;;
48285;SDS011;34102;47.716;10.296;2022-08-06T07:58:33;5.88;;;4.43;;
48285;SDS011;34102;47.716;10.296;2022-08-06T08:01:00;5.78;;;4.90;;
48285;SDS011;34102;47.716;10.296;2022-08-06T08:03:25;3.97;;;2.90;;
48285;SDS011;34102;47.716;10.296;2022-08-06T08:06:09;3.17;;;2.70;;
48285;SDS011;34102;47.716;10.296;2022-08-06T08:08:46;3.17;;;2.75;;
48285;SDS011;34102;47.716;10.296;2022-08-06T08:11:15;3.00;;;2.38;;
48285;SDS011;34102;47.716;10.296;2022-08-06T08:13:41;3.28;;;2.78;;
48285;SDS011;34102;47.716;10.296;2022-08-06T08:16:08;3.88;;;2.45;;
48285;SDS011;34102;47.716;10.296;2022-08-06T08:18:33;2.35;;;2.13;;
48285;SDS011;34102;47.716;10.296;2022-08-06T08:20:59;4.78;;;2.90;;
48285;SDS011;34102;47.716;10.296;2022-08-06T08:23:25;5.07;;;2.97;;
48285;SDS011;34102;47.716;10.296;2022-08-06T08:25:51;2.58;;;2.17;;
48285;SDS011;34102;47.716;10.296;2022-08-06T08:28:16;2.47;;;2.13;;
48285;SDS011;34102;47.716;10.296;2022-08-06T08:30:43;2.67;;;1.60;;
48285;SDS011;34102;47.716;10.296;2022-08-06T08:33:09;2.05;;;1.50;;
48285;SDS011;34102;47.716;10.296;2022-08-06T08:35:37;2.35;;;1.75;;
48285;SDS011;34102;47.716;10.296;2022-08-06T08:38:02;2.40;;;1.80;;
48285;SDS011;34102;47.716;10.296;2022-08-06T08:40:27;3.13;;;1.58;;
48285;SDS011;34102;47.716;10.296;2022-08-06T08:42:54;2.30;;;1.65;;
48285;SDS011;34102;47.716;10.296;2022-08-06T08:45:23;2.00;;;1.60;;
48285;SDS011;34102;47.716;10.296;2022-08-06T08:50:52;1.85;;;1.45;;
48285;SDS011;34102;47.716;10.296;2022-08-06T08:53:20;1.73;;;1.40;;
48285;SDS011;34102;47.716;10.296;2022-08-06T08:55:47;2.85;;;1.88;;
48285;SDS011;34102;47.716;10.296;2022-08-06T08:58:13;2.38;;;2.10;;
48285;SDS011;34102;47.716;10.296;2022-08-06T09:00:39;2.70;;;2.28;;
48285;SDS011;34102;47.716;10.296;2022-08-06T09:03:04;4.85;;;3.15;;
48285;SDS011;34102;47.716;10.296;2022-08-06T09:05:30;4.20;;;3.80;;
48285;SDS011;34102;47.716;10.296;2022-08-06T09:07:56;5.50;;;4.07;;
48285;SDS011;34102;47.716;10.296;2022-08-06T09:10:22;4.68;;;4.18;;
48285;SDS011;34102;47.716;10.296;2022-08-06T09:12:49;6.22;;;4.65;;
48285;SDS011;34102;47.716;10.296;2022-08-06T09:15:15;6.90;;;5.78;;
48285;SDS011;34102;47.716;10.296;2022-08-06T09:17:41;7.88;;;6.55;;
48285;SDS011;34102;47.716;10.296;2022-08-06T09:20:06;9.48;;;6.22;;
48285;SDS011;34102;47.716;10.296;2022-08-06T09:22:32;8.25;;;5.90;;
48285;SDS011;34102;47.716;10.296;2022-08-06T09:24:57;11.38;;;6.43;;
48285;SDS011;34102;47.716;10.296;2022-08-06T09:27:22;6.47;;;5.82;;
48285;SDS011;34102;47.716;10.296;2022-08-06T09:29:50;9.18;;;6.60;;
48285;SDS011;34102;47.716;10.296;2022-08-06T09:32:34;7.97;;;6.97;;
48285;SDS011;34102;47.716;10.296;2022-08-06T09:35:00;8.40;;;6.75;;
48285;SDS011;34102;47.716;10.296;2022-08-06T09:37:28;8.02;;;6.45;;
48285;SDS011;34102;47.716;10.296;2022-08-06T09:39:54;7.75;;;6.95;;
48285;SDS011;34102;47.716;10.296;2022-08-06T09:42:42;8.93;;;7.18;;
48285;SDS011;34102;47.716;10.296;2022-08-06T09:45:08;8.55;;;7.07;;
48285;SDS011;34102;47.716;10.296;2022-08-06T09:47:34;8.70;;;6.57;;
48285;SDS011;34102;47.716;10.296;2022-08-06T09:50:01;11.65;;;7.45;;
48285;SDS011;34102;47.716;10.296;2022-08-06T09:52:26;10.95;;;7.97;;
48285;SDS011;34102;47.716;10.296;2022-08-06T09:54:52;11.38;;;8.43;;
48285;SDS011;34102;47.716;10.296;2022-08-06T09:57:17;12.83;;;7.87;;
48285;SDS011;34102;47.716;10.296;2022-08-06T09:59:43;11.13;;;8.10;;
48285;SDS011;34102;47.716;10.296;2022-08-06T10:02:19;9.27;;;7.85;;
48285;SDS011;34102;47.716;10.296;2022-08-06T10:04:45;11.18;;;8.57;;
48285;SDS011;34102;47.716;10.296;2022-08-06T10:07:10;10.93;;;9.40;;
48285;SDS011;34102;47.716;10.296;2022-08-06T10:09:39;11.75;;;9.48;;
48285;SDS011;34102;47.716;10.296;2022-08-06T10:12:19;14.43;;;9.88;;
48285;SDS011;34102;47.716;10.296;2022-08-06T10:14:44;14.75;;;10.45;;
48285;SDS011;34102;47.716;10.296;2022-08-06T10:17:11;16.50;;;12.00;;
48285;SDS011;34102;47.716;10.296;2022-08-06T10:19:37;16.90;;;12.38;;
48285;SDS011;34102;47.716;10.296;2022-08-06T10:22:14;16.33;;;12.02;;
48285;SDS011;34102;47.716;10.296;2022-08-06T10:24:41;15.35;;;11.68;;
48285;SDS011;34102;47.716;10.296;2022-08-06T10:27:07;16.48;;;11.25;;
48285;SDS011;34102;47.716;10.296;2022-08-06T10:29:34;13.60;;;10.88;;
48285;SDS011;34102;47.716;10.296;2022-08-06T10:32:00;15.10;;;10.93;;
48285;SDS011;34102;47.716;10.296;2022-08-06T10:34:27;17.05;;;10.23;;
48285;SDS011;34102;47.716;10.296;2022-08-06T10:36:59;15.38;;;11.52;;
48285;SDS011;34102;47.716;10.296;2022-08-06T10:39:28;12.98;;;10.95;;
48285;SDS011;34102;47.716;10.296;2022-08-06T10:41:54;14.95;;;11.15;;
48285;SDS011;34102;47.716;10.296;2022-08-06T10:44:21;15.77;;;10.90;;
48285;SDS011;34102;47.716;10.296;2022-08-06T10:46:47;13.75;;;10.23;;
48285;SDS011;34102;47.716;10.296;2022-08-06T10:49:12;15.57;;;10.45;;
48285;SDS011;34102;47.716;10.296;2022-08-06T10:51:39;13.73;;;10.25;;
48285;SDS011;34102;47.716;10.296;2022-08-06T10:54:05;14.75;;;10.05;;
48285;SDS011;34102;47.716;10.296;2022-08-06T10:56:31;12.30;;;9.60;;
48285;SDS011;34102;47.716;10.296;2022-08-06T10:58:56;11.15;;;8.90;;
48285;SDS011;34102;47.716;10.296;2022-08-06T11:03:53;12.65;;;9.63;;
48285;SDS011;34102;47.716;10.296;2022-08-06T11:14:05;13.18;;;8.43;;
48285;SDS011;34102;47.716;10.296;2022-08-06T11:16:32;11.45;;;8.60;;
48285;SDS011;34102;47.716;10.296;2022-08-06T11:18:58;10.95;;;8.40;;
48285;SDS011;34102;47.716;10.296;2022-08-06T11:21:36;11.05;;;8.35;;
48285;SDS011;34102;47.716;10.296;2022-08-06T11:24:02;12.07;;;8.82;;
48285;SDS011;34102;47.716;10.296;2022-08-06T11:26:33;10.55;;;7.90;;
48285;SDS011;34102;47.716;10.296;2022-08-06T11:29:00;11.00;;;8.55;;
48285;SDS011;34102;47.716;10.296;2022-08-06T11:31:44;8.90;;;7.93;;
48285;SDS011;34102;47.716;10.296;2022-08-06T11:34:12;11.35;;;9.02;;
48285;SDS011;34102;47.716;10.296;2022-08-06T11:39:15;13.60;;;10.05;;
48285;SDS011;34102;47.716;10.296;2022-08-06T11:41:48;15.55;;;10.65;;
48285;SDS011;34102;47.716;10.296;2022-08-06T11:44:14;14.23;;;11.05;;
48285;SDS011;34102;47.716;10.296;2022-08-06T11:46:42;18.52;;;11.73;;
48285;SDS011;34102;47.716;10.296;2022-08-06T11:49:11;18.13;;;13.15;;
48285;SDS011;34102;47.716;10.296;2022-08-06T11:51:47;15.63;;;13.20;;
48285;SDS011;34102;47.716;10.296;2022-08-06T11:54:16;14.63;;;12.55;;
48285;SDS011;34102;47.716;10.296;2022-08-06T11:59:36;16.30;;;13.43;;
48285;SDS011;34102;47.716;10.296;2022-08-06T12:02:02;17.35;;;13.88;;
48285;SDS011;34102;47.716;10.296;2022-08-06T12:07:22;18.98;;;15.88;;
48285;SDS011;34102;47.716;10.296;2022-08-06T12:10:01;17.45;;;14.63;;
48285;SDS011;34102;47.716;10.296;2022-08-06T12:14:53;20.43;;;15.30;;
48285;SDS011;34102;47.716;10.296;2022-08-06T12:17:19;17.55;;;14.80;;
48285;SDS011;34102;47.716;10.296;2022-08-06T12:19:45;18.73;;;14.57;;
48285;SDS011;34102;47.716;10.296;2022-08-06T12:22:14;22.02;;;15.15;;
48285;SDS011;34102;47.716;10.296;2022-08-06T12:24:40;19.92;;;15.25;;
48285;SDS011;34102;47.716;10.296;2022-08-06T12:27:07;19.75;;;15.35;;
48285;SDS011;34102;47.716;10.296;2022-08-06T12:29:34;20.02;;;15.88;;
48285;SDS011;34102;47.716;10.296;2022-08-06T12:31:59;17.63;;;15.18;;
48285;SDS011;34102;47.716;10.296;2022-08-06T12:34:26;20.90;;;17.15;;
48285;SDS011;34102;47.716;10.296;2022-08-06T12:36:52;23.92;;;17.02;;
48285;SDS011;34102;47.716;10.296;2022-08-06T12:39:17;21.75;;;18.10;;
48285;SDS011;34102;47.716;10.296;2022-08-06T12:41:43;25.35;;;17.33;;
48285;SDS011;34102;47.716;10.296;2022-08-06T12:44:08;20.65;;;18.45;;
48285;SDS011;34102;47.716;10.296;2022-08-06T12:46:34;22.88;;;17.65;;
48285;SDS011;34102;47.716;10.296;2022-08-06T12:48:59;23.92;;;19.23;;
48285;SDS011;34102;47.716;10.296;2022-08-06T12:51:25;21.73;;;17.92;;
48285;SDS011;34102;47.716;10.296;2022-08-06T12:53:55;23.85;;;19.67;;
48285;SDS011;34102;47.716;10.296;2022-08-06T12:56:21;22.08;;;19.33;;
48285;SDS011;34102;47.716;10.296;2022-08-06T12:58:48;27.98;;;19.42;;
48285;SDS011;34102;47.716;10.296;2022-08-06T13:01:15;21.77;;;19.17;;
48285;SDS011;34102;47.716;10.296;2022-08-06T13:03:41;25.58;;;18.85;;
48285;SDS011;34102;47.716;10.296;2022-08-06T13:06:08;22.58;;;19.63;;
48285;SDS011;34102;47.716;10.296;2022-08-06T13:08:34;23.52;;;20.02;;
48285;SDS011;34102;47.716;10.296;2022-08-06T13:10:59;24.75;;;19.63;;
48285;SDS011;34102;47.716;10.296;2022-08-06T13:13:41;26.10;;;21.00;;
48285;SDS011;34102;47.716;10.296;2022-08-06T13:16:11;25.60;;;20.95;;
48285;SDS011;34102;47.716;10.296;2022-08-06T13:18:37;22.65;;;20.20;;
48285;SDS011;34102;47.716;10.296;2022-08-06T13:23:58;25.42;;;19.50;;
48285;SDS011;34102;47.716;10.296;2022-08-06T13:32:41;26.30;;;22.08;;
48285;SDS011;34102;47.716;10.296;2022-08-06T13:35:11;33.22;;;22.63;;
48285;SDS011;34102;47.716;10.296;2022-08-06T13:40:44;25.25;;;21.80;;
48285;SDS011;34102;47.716;10.296;2022-08-06T13:46:22;28.13;;;22.83;;
48285;SDS011;34102;47.716;10.296;2022-08-06T13:51:56;27.52;;;22.20;;
48285;SDS011;34102;47.716;10.296;2022-08-06T13:54:22;29.10;;;23.98;;
48285;SDS011;34102;47.716;10.296;2022-08-06T13:56:48;27.52;;;22.88;;
48285;SDS011;34102;47.716;10.296;2022-08-06T13:59:14;24.30;;;21.80;;
48285;SDS011;34102;47.716;10.296;2022-08-06T14:01:41;26.63;;;22.42;;
48285;SDS011;34102;47.716;10.296;2022-08-06T14:04:06;25.85;;;21.27;;
48285;SDS011;34102;47.716;10.296;2022-08-06T14:06:31;24.90;;;21.17;;
48285;SDS011;34102;47.716;10.296;2022-08-06T14:08:57;27.97;;;22.00;;
48285;SDS011;34102;47.716;10.296;2022-08-06T14:11:22;25.25;;;20.73;;
48285;SDS011;34102;47.716;10.296;2022-08-06T14:13:47;22.58;;;19.52;;
48285;SDS011;34102;47.716;10.296;2022-08-06T14:16:13;23.10;;;20.08;;
48285;SDS011;34102;47.716;10.296;2022-08-06T14:18:38;24.70;;;19.77;;
48285;SDS011;34102;47.716;10.296;2022-08-06T14:21:04;25.10;;;19.83;;
48285;SDS011;34102;47.716;10.296;2022-08-06T14:23:29;23.08;;;19.05;;
48285;SDS011;34102;47.716;10.296;2022-08-06T14:25:54;22.05;;;19.65;;
48285;SDS011;34102;47.716;10.296;2022-08-06T14:28:20;24.73;;;19.38;;
48285;SDS011;34102;47.716;10.296;2022-08-06T14:30:45;23.92;;;18.63;;
48285;SDS011;34102;47.716;10.296;2022-08-06T14:33:10;21.25;;;17.35;;
48285;SDS011;34102;47.716;10.296;2022-08-06T14:35:36;23.38;;;18.77;;
48285;SDS011;34102;47.716;10.296;2022-08-06T14:38:02;22.50;;;18.92;;
48285;SDS011;34102;47.716;10.296;2022-08-06T14:40:28;21.77;;;18.88;;
48285;SDS011;34102;47.716;10.296;2022-08-06T14:43:12;20.77;;;18.53;;
48285;SDS011;34102;47.716;10.296;2022-08-06T14:45:56;22.85;;;18.10;;
48285;SDS011;34102;47.716;10.296;2022-08-06T14:48:24;23.40;;;18.98;;
48285;SDS011;34102;47.716;10.296;2022-08-06T14:50:49;20.87;;;17.97;;
48285;SDS011;34102;47.716;10.296;2022-08-06T14:53:14;26.77;;;18.67;;
48285;SDS011;34102;47.716;10.296;2022-08-06T14:55:40;23.58;;;18.02;;
48285;SDS011;34102;47.716;10.296;2022-08-06T14:58:05;21.25;;;18.17;;
48285;SDS011;34102;47.716;10.296;2022-08-06T15:00:30;25.98;;;19.40;;
48285;SDS011;34102;47.716;10.296;2022-08-06T15:02:56;21.77;;;18.52;;
48285;SDS011;34102;47.716;10.296;2022-08-06T15:05:21;23.27;;;17.77;;
48285;SDS011;34102;47.716;10.296;2022-08-06T15:07:47;23.45;;;17.15;;
48285;SDS011;34102;47.716;10.296;2022-08-06T15:10:12;19.02;;;16.25;;
48285;SDS011;34102;47.716;10.296;2022-08-06T15:12:37;21.02;;;18.02;;
48285;SDS011;34102;47.716;10.296;2022-08-06T15:15:03;22.67;;;17.73;;
48285;SDS011;34102;47.716;10.296;2022-08-06T15:17:29;20.17;;;16.95;;
48285;SDS011;34102;47.716;10.296;2022-08-06T15:19:54;20.90;;;17.70;;
48285;SDS011;34102;47.716;10.296;2022-08-06T15:22:20;21.95;;;18.02;;
48285;SDS011;34102;47.716;10.296;2022-08-06T15:24:45;21.45;;;16.65;;
48285;SDS011;34102;47.716;10.296;2022-08-06T15:27:10;18.95;;;14.77;;
48285;SDS011;34102;47.716;10.296;2022-08-06T15:29:35;19.40;;;16.80;;
48285;SDS011;34102;47.716;10.296;2022-08-06T15:32:01;20.63;;;18.42;;
48285;SDS011;34102;47.716;10.296;2022-08-06T15:34:27;22.50;;;18.33;;
48285;SDS011;34102;47.716;10.296;2022-08-06T15:36:52;17.85;;;16.08;;
48285;SDS011;34102;47.716;10.296;2022-08-06T15:39:18;20.88;;;18.05;;
48285;SDS011;34102;47.716;10.296;2022-08-06T15:41:44;17.10;;;14.93;;
48285;SDS011;34102;47.716;10.296;2022-08-06T15:44:09;17.70;;;15.80;;
48285;SDS011;34102;47.716;10.296;2022-08-06T15:46:34;19.38;;;15.50;;
48285;SDS011;34102;47.716;10.296;2022-08-06T15:49:00;19.10;;;16.23;;
48285;SDS011;34102;47.716;10.296;2022-08-06T15:51:25;15.82;;;14.05;;
48285;SDS011;34102;47.716;10.296;2022-08-06T15:53:51;19.58;;;16.17;;
48285;SDS011;34102;47.716;10.296;2022-08-06T15:56:17;20.23;;;16.48;;
48285;SDS011;34102;47.716;10.296;2022-08-06T15:58:42;20.65;;;18.50;;
48285;SDS011;34102;47.716;10.296;2022-08-06T16:01:08;19.35;;;17.30;;
48285;SDS011;34102;47.716;10.296;2022-08-06T16:03:34;21.05;;;17.95;;
48285;SDS011;34102;47.716;10.296;2022-08-06T16:05:59;22.02;;;18.08;;
48285;SDS011;34102;47.716;10.296;2022-08-06T16:08:25;22.20;;;19.40;;
48285;SDS011;34102;47.716;10.296;2022-08-06T16:10:50;22.52;;;19.33;;
48285;SDS011;34102;47.716;10.296;2022-08-06T16:13:16;22.77;;;19.63;;
48285;SDS011;34102;47.716;10.296;2022-08-06T16:15:45;20.85;;;18.63;;
48285;SDS011;34102;47.716;10.296;2022-08-06T16:18:10;22.55;;;20.10;;
48285;SDS011;34102;47.716;10.296;2022-08-06T16:20:37;23.00;;;20.02;;
48285;SDS011;34102;47.716;10.296;2022-08-06T16:23:02;25.33;;;20.77;;
48285;SDS011;34102;47.716;10.296;2022-08-06T16:25:28;24.20;;;21.10;;
48285;SDS011;34102;47.716;10.296;2022-08-06T16:27:53;22.27;;;19.88;;
48285;SDS011;34102;47.716;10.296;2022-08-06T16:30:19;23.35;;;20.92;;
48285;SDS011;34102;47.716;10.296;2022-08-06T16:32:44;22.33;;;19.92;;
48285;SDS011;34102;47.716;10.296;2022-08-06T16:35:10;22.50;;;20.20;;
48285;SDS011;34102;47.716;10.296;2022-08-06T16:37:35;23.13;;;20.63;;
48285;SDS011;34102;47.716;10.296;2022-08-06T16:40:00;21.77;;;19.47;;
48285;SDS011;34102;47.716;10.296;2022-08-06T16:42:26;22.60;;;19.88;;
48285;SDS011;34102;47.716;10.296;2022-08-06T16:44:52;21.02;;;18.70;;
48285;SDS011;34102;47.716;10.296;2022-08-06T16:47:18;20.42;;;17.55;;
48285;SDS011;34102;47.716;10.296;2022-08-06T16:49:43;19.05;;;17.05;;
48285;SDS011;34102;47.716;10.296;2022-08-06T16:52:08;16.87;;;15.17;;
48285;SDS011;34102;47.716;10.296;2022-08-06T16:54:34;20.77;;;18.50;;
48285;SDS011;34102;47.716;10.296;2022-08-06T16:56:59;20.55;;;18.35;;
48285;SDS011;34102;47.716;10.296;2022-08-06T16:59:24;20.40;;;18.02;;
48285;SDS011;34102;47.716;10.296;2022-08-06T17:01:49;22.63;;;19.70;;
48285;SDS011;34102;47.716;10.296;2022-08-06T17:04:33;22.13;;;19.00;;
48285;SDS011;34102;47.716;10.296;2022-08-06T17:06:59;22.02;;;19.55;;
48285;SDS011;34102;47.716;10.296;2022-08-06T17:09:25;21.95;;;18.63;;
48285;SDS011;34102;47.716;10.296;2022-08-06T17:11:50;20.95;;;18.70;;
48285;SDS011;34102;47.716;10.296;2022-08-06T17:14:16;30.15;;;20.30;;
48285;SDS011;34102;47.716;10.296;2022-08-06T17:16:41;23.70;;;19.98;;
48285;SDS011;34102;47.716;10.296;2022-08-06T17:19:07;22.48;;;19.35;;
48285;SDS011;34102;47.716;10.296;2022-08-06T17:21:33;21.73;;;19.33;;
48285;SDS011;34102;47.716;10.296;2022-08-06T17:23:58;20.08;;;17.98;;
48285;SDS011;34102;47.716;10.296;2022-08-06T17:26:26;22.23;;;19.75;;
48285;SDS011;34102;47.716;10.296;2022-08-06T17:29:12;22.13;;;19.13;;
48285;SDS011;34102;47.716;10.296;2022-08-06T17:31:37;22.40;;;19.63;;
48285;SDS011;34102;47.716;10.296;2022-08-06T17:34:02;24.88;;;20.20;;
48285;SDS011;34102;47.716;10.296;2022-08-06T17:36:27;25.77;;;19.40;;
48285;SDS011;34102;47.716;10.296;2022-08-06T17:38:53;21.02;;;18.77;;
48285;SDS011;34102;47.716;10.296;2022-08-06T17:41:18;21.52;;;19.20;;
48285;SDS011;34102;47.716;10.296;2022-08-06T17:43:44;20.40;;;18.30;;
48285;SDS011;34102;47.716;10.296;2022-08-06T17:46:09;22.57;;;19.67;;
48285;SDS011;34102;47.716;10.296;2022-08-06T17:48:34;22.95;;;18.90;;
48285;SDS011;34102;47.716;10.296;2022-08-06T17:51:01;21.30;;;18.17;;
48285;SDS011;34102;47.716;10.296;2022-08-06T17:53:26;21.17;;;18.67;;
48285;SDS011;34102;47.716;10.296;2022-08-06T17:55:52;20.15;;;17.88;;
48285;SDS011;34102;47.716;10.296;2022-08-06T17:58:17;21.63;;;18.77;;
48285;SDS011;34102;47.716;10.296;2022-08-06T18:00:42;19.75;;;16.88;;
48285;SDS011;34102;47.716;10.296;2022-08-06T18:03:08;19.77;;;16.83;;
48285;SDS011;34102;47.716;10.296;2022-08-06T18:05:33;19.08;;;15.40;;
48285;SDS011;34102;47.716;10.296;2022-08-06T18:07:58;18.02;;;15.20;;
48285;SDS011;34102;47.716;10.296;2022-08-06T18:10:24;14.98;;;12.15;;
48285;SDS011;34102;47.716;10.296;2022-08-06T18:12:52;15.93;;;12.85;;
48285;SDS011;34102;47.716;10.296;2022-08-06T18:15:18;16.27;;;13.10;;
48285;SDS011;34102;47.716;10.296;2022-08-06T18:17:44;15.73;;;13.57;;
48285;SDS011;34102;47.716;10.296;2022-08-06T18:20:09;16.05;;;13.55;;
48285;SDS011;34102;47.716;10.296;2022-08-06T18:22:35;16.30;;;13.30;;
48285;SDS011;34102;47.716;10.296;2022-08-06T18:25:00;11.32;;;9.43;;
48285;SDS011;34102;47.716;10.296;2022-08-06T18:27:25;14.77;;;13.20;;
48285;SDS011;34102;47.716;10.296;2022-08-06T18:29:51;17.05;;;14.00;;
48285;SDS011;34102;47.716;10.296;2022-08-06T18:32:17;17.30;;;13.98;;
48285;SDS011;34102;47.716;10.296;2022-08-06T18:34:43;19.90;;;14.85;;
48285;SDS011;34102;47.716;10.296;2022-08-06T18:37:08;17.57;;;13.20;;
48285;SDS011;34102;47.716;10.296;2022-08-06T18:39:33;17.98;;;13.60;;
48285;SDS011;34102;47.716;10.296;2022-08-06T18:41:59;18.13;;;13.68;;
48285;SDS011;34102;47.716;10.296;2022-08-06T18:44:24;17.05;;;13.70;;
48285;SDS011;34102;47.716;10.296;2022-08-06T18:46:50;18.33;;;14.00;;
48285;SDS011;34102;47.716;10.296;2022-08-06T18:49:16;16.63;;;14.00;;
48285;SDS011;34102;47.716;10.296;2022-08-06T18:51:42;19.33;;;13.27;;
48285;SDS011;34102;47.716;10.296;2022-08-06T18:54:07;19.15;;;15.13;;
48285;SDS011;34102;47.716;10.296;2022-08-06T18:56:33;16.83;;;14.15;;
48285;SDS011;34102;47.716;10.296;2022-08-06T18:58:58;16.33;;;14.50;;
48285;SDS011;34102;47.716;10.296;2022-08-06T19:01:27;16.05;;;14.27;;
48285;SDS011;34102;47.716;10.296;2022-08-06T19:04:01;18.55;;;15.05;;
48285;SDS011;34102;47.716;10.296;2022-08-06T19:06:34;16.38;;;12.88;;
48285;SDS011;34102;47.716;10.296;2022-08-06T19:08:59;18.00;;;14.70;;
48285;SDS011;34102;47.716;10.296;2022-08-06T19:11:25;17.13;;;14.38;;
48285;SDS011;34102;47.716;10.296;2022-08-06T19:13:50;15.43;;;13.80;;
48285;SDS011;34102;47.716;10.296;2022-08-06T19:16:18;19.05;;;14.57;;
48285;SDS011;34102;47.716;10.296;2022-08-06T19:18:44;17.50;;;15.05;;
48285;SDS011;34102;47.716;10.296;2022-08-06T19:21:09;18.65;;;15.82;;
48285;SDS011;34102;47.716;10.296;2022-08-06T19:23:34;17.13;;;13.50;;
48285;SDS011;34102;47.716;10.296;2022-08-06T19:26:00;19.63;;;17.17;;
48285;SDS011;34102;47.716;10.296;2022-08-06T19:28:26;18.98;;;16.13;;
48285;SDS011;34102;47.716;10.296;2022-08-06T19:30:51;18.40;;;16.50;;
48285;SDS011;34102;47.716;10.296;2022-08-06T19:33:16;21.30;;;17.02;;
48285;SDS011;34102;47.716;10.296;2022-08-06T19:35:44;21.73;;;15.63;;
48285;SDS011;34102;47.716;10.296;2022-08-06T19:38:09;18.25;;;16.30;;
48285;SDS011;34102;47.716;10.296;2022-08-06T19:40:35;20.40;;;16.65;;
48285;SDS011;34102;47.716;10.296;2022-08-06T19:43:16;22.08;;;18.85;;
48285;SDS011;34102;47.716;10.296;2022-08-06T19:45:42;26.50;;;19.27;;
48285;SDS011;34102;47.716;10.296;2022-08-06T19:48:07;21.30;;;18.33;;
48285;SDS011;34102;47.716;10.296;2022-08-06T19:50:32;21.23;;;18.30;;
48285;SDS011;34102;47.716;10.296;2022-08-06T19:52:59;21.73;;;18.75;;
48285;SDS011;34102;47.716;10.296;2022-08-06T19:55:24;20.70;;;18.50;;
48285;SDS011;34102;47.716;10.296;2022-08-06T19:57:50;23.52;;;19.88;;
48285;SDS011;34102;47.716;10.296;2022-08-06T20:00:15;21.88;;;19.58;;
48285;SDS011;34102;47.716;10.296;2022-08-06T20:02:41;21.17;;;18.45;;
48285;SDS011;34102;47.716;10.296;2022-08-06T20:05:08;23.25;;;18.95;;
48285;SDS011;34102;47.716;10.296;2022-08-06T20:07:34;22.33;;;19.17;;
48285;SDS011;34102;47.716;10.296;2022-08-06T20:09:59;22.77;;;19.77;;
48285;SDS011;34102;47.716;10.296;2022-08-06T20:12:24;21.38;;;19.08;;
48285;SDS011;34102;47.716;10.296;2022-08-06T20:14:51;22.85;;;19.98;;
48285;SDS011;34102;47.716;10.296;2022-08-06T20:17:16;24.38;;;20.40;;
48285;SDS011;34102;47.716;10.296;2022-08-06T20:19:41;22.13;;;19.35;;
48285;SDS011;34102;47.716;10.296;2022-08-06T20:22:06;23.30;;;20.40;;
48285;SDS011;34102;47.716;10.296;2022-08-06T20:24:32;21.65;;;19.40;;
48285;SDS011;34102;47.716;10.296;2022-08-06T20:26:57;25.30;;;21.17;;
48285;SDS011;34102;47.716;10.296;2022-08-06T20:29:22;22.75;;;20.30;;
48285;SDS011;34102;47.716;10.296;2022-08-06T20:31:48;23.10;;;20.47;;
48285;SDS011;34102;47.716;10.296;2022-08-06T20:34:13;24.67;;;20.05;;
48285;SDS011;34102;47.716;10.296;2022-08-06T20:36:38;23.70;;;21.15;;
48285;SDS011;34102;47.716;10.296;2022-08-06T20:39:04;24.83;;;21.08;;
48285;SDS011;34102;47.716;10.296;2022-08-06T20:41:29;25.33;;;20.35;;
48285;SDS011;34102;47.716;10.296;2022-08-06T20:43:55;24.80;;;20.90;;
48285;SDS011;34102;47.716;10.296;2022-08-06T20:46:21;25.02;;;20.92;;
48285;SDS011;34102;47.716;10.296;2022-08-06T20:48:46;22.45;;;19.88;;
48285;SDS011;34102;47.716;10.296;2022-08-06T20:51:11;22.67;;;20.13;;
48285;SDS011;34102;47.716;10.296;2022-08-06T20:53:38;21.73;;;18.00;;
48285;SDS011;34102;47.716;10.296;2022-08-06T20:56:04;19.55;;;17.10;;
48285;SDS011;34102;47.716;10.296;2022-08-06T20:58:29;19.63;;;17.52;;
48285;SDS011;34102;47.716;10.296;2022-08-06T21:00:54;21.33;;;19.08;;
48285;SDS011;34102;47.716;10.296;2022-08-06T21:03:20;22.08;;;19.77;;
48285;SDS011;34102;47.716;10.296;2022-08-06T21:05:48;23.48;;;20.98;;
48285;SDS011;34102;47.716;10.296;2022-08-06T21:08:14;22.67;;;18.52;;
48285;SDS011;34102;47.716;10.296;2022-08-06T21:10:39;20.10;;;18.10;;
48285;SDS011;34102;47.716;10.296;2022-08-06T21:13:05;22.80;;;18.10;;
48285;SDS011;34102;47.716;10.296;2022-08-06T21:15:30;20.77;;;17.83;;
48285;SDS011;34102;47.716;10.296;2022-08-06T21:17:56;19.52;;;16.60;;
48285;SDS011;34102;47.716;10.296;2022-08-06T21:20:21;19.83;;;17.73;;
48285;SDS011;34102;47.716;10.296;2022-08-06T21:22:46;17.87;;;16.07;;
48285;SDS011;34102;47.716;10.296;2022-08-06T21:25:11;18.85;;;16.35;;
48285;SDS011;34102;47.716;10.296;2022-08-06T21:27:37;18.48;;;14.50;;
48285;SDS011;34102;47.716;10.296;2022-08-06T21:30:12;21.30;;;17.90;;
48285;SDS011;34102;47.716;10.296;2022-08-06T21:32:38;18.98;;;16.17;;
48285;SDS011;34102;47.716;10.296;2022-08-06T21:35:03;19.08;;;17.00;;
48285;SDS011;34102;47.716;10.296;2022-08-06T21:37:29;17.65;;;15.15;;
48285;SDS011;34102;47.716;10.296;2022-08-06T21:39:54;20.88;;;15.30;;
48285;SDS011;34102;47.716;10.296;2022-08-06T21:42:23;17.27;;;15.48;;
48285;SDS011;34102;47.716;10.296;2022-08-06T21:44:49;18.02;;;15.43;;
48285;SDS011;34102;47.716;10.296;2022-08-06T21:47:14;17.98;;;15.98;;
48285;SDS011;34102;47.716;10.296;2022-08-06T21:49:39;20.17;;;16.83;;
48285;SDS011;34102;47.716;10.296;2022-08-06T21:52:05;18.40;;;16.57;;
48285;SDS011;34102;47.716;10.296;2022-08-06T21:54:30;20.33;;;17.33;;
48285;SDS011;34102;47.716;10.296;2022-08-06T21:56:55;20.90;;;18.45;;